Time;durP1;ratioP1;P1;durP2;ratioP2;P2;SDS_P1;SDS_P2;PMS_P1;PMS_P2;Temp;Humidity;BMP_temperature;BMP_pressure;BME280_temperature;BME280_humidity;BME280_pressure;Samples;Min_cycle;Max_cycle;Signal;HPM_P1;HPM_P2
2024/03/12 00:02:15;;;;;;;19.85;13.05;;;8.20;99.90;;;;;;5052967;28;20029;-70
2024/03/12 00:04:40;;;;;;;21.63;13.63;;;8.20;99.90;;;;;;5053397;28;20033;-70
2024/03/12 00:07:06;;;;;;;20.40;13.23;;;8.20;99.90;;;;;;5053255;28;20079;-71
2024/03/12 00:09:34;;;;;;;21.25;14.15;;;8.20;99.90;;;;;;5053380;28;20032;-70
2024/03/12 00:12:00;;;;;;;19.33;13.20;;;8.20;99.90;;;;;;5053272;28;20189;-70
2024/03/12 00:14:25;;;;;;;17.25;12.30;;;8.20;99.90;;;;;;5053494;28;20082;-71
2024/03/12 00:16:51;;;;;;;19.73;12.95;;;8.10;99.90;;;;;;5053320;28;20029;-71
2024/03/12 00:19:17;;;;;;;19.42;13.45;;;8.10;99.90;;;;;;5053320;28;20029;-71
2024/03/12 00:21:43;;;;;;;18.08;13.45;;;8.10;99.90;;;;;;5053283;28;20033;-70
2024/03/12 00:24:10;;;;;;;19.17;12.20;;;8.20;99.90;;;;;;5053269;28;20029;-71
2024/03/12 00:26:36;;;;;;;17.80;12.30;;;8.20;99.90;;;;;;5052537;28;20045;-70
2024/03/12 00:29:02;;;;;;;16.17;11.50;;;8.20;99.90;;;;;;5053148;28;20033;-71
2024/03/12 00:31:27;;;;;;;16.40;11.95;;;8.20;99.90;;;;;;5053227;28;20483;-70
2024/03/12 00:33:55;;;;;;;19.88;11.15;;;8.20;99.90;;;;;;5053209;28;20067;-71
2024/03/12 00:36:20;;;;;;;20.45;12.75;;;8.10;99.90;;;;;;5053185;28;20047;-70
2024/03/12 00:38:46;;;;;;;17.83;12.15;;;8.20;99.90;;;;;;5053174;28;20029;-70
2024/03/12 00:41:12;;;;;;;20.42;12.88;;;8.20;99.90;;;;;;5053283;28;20119;-70
2024/03/12 00:43:37;;;;;;;15.93;11.65;;;8.20;99.90;;;;;;5053060;28;20037;-70
2024/03/12 00:46:04;;;;;;;16.02;11.50;;;8.20;99.90;;;;;;5052533;28;20029;-70
2024/03/12 00:48:30;;;;;;;15.57;10.98;;;8.20;99.90;;;;;;5053085;28;20028;-70
2024/03/12 00:50:55;;;;;;;19.08;12.57;;;8.20;99.90;;;;;;5052648;28;20025;-70
2024/03/12 00:53:21;;;;;;;21.60;13.55;;;8.20;99.90;;;;;;5052996;28;20032;-71
2024/03/12 00:55:47;;;;;;;19.23;13.43;;;8.20;99.90;;;;;;5052624;28;20120;-70
2024/03/12 00:58:13;;;;;;;19.70;13.50;;;8.20;99.90;;;;;;5052971;28;20115;-70
2024/03/12 01:00:39;;;;;;;22.42;13.55;;;8.30;99.90;;;;;;5052823;28;20033;-70
2024/03/12 01:03:08;;;;;;;20.80;14.75;;;8.30;99.90;;;;;;5052562;28;20082;-70
2024/03/12 01:05:36;;;;;;;20.63;13.40;;;8.30;99.90;;;;;;5052899;28;20399;-70
2024/03/12 01:08:03;;;;;;;20.77;13.30;;;8.40;99.90;;;;;;5052545;28;20033;-70
2024/03/12 01:10:30;;;;;;;24.00;13.20;;;8.40;99.90;;;;;;5052431;28;20025;-70
2024/03/12 01:12:58;;;;;;;20.27;14.13;;;8.40;99.90;;;;;;5053069;28;20368;-70
2024/03/12 01:15:24;;;;;;;25.30;14.70;;;8.40;99.90;;;;;;5056555;28;20025;-70
2024/03/12 01:17:53;;;;;;;20.08;13.88;;;8.50;99.90;;;;;;5056635;28;20483;-70
2024/03/12 01:20:20;;;;;;;25.92;15.77;;;8.50;99.90;;;;;;5056554;28;20037;-70
2024/03/12 01:22:47;;;;;;;25.10;15.85;;;8.50;99.90;;;;;;5056412;28;20487;-70
2024/03/12 01:25:12;;;;;;;29.52;16.55;;;8.50;99.90;;;;;;5056434;28;20063;-71
2024/03/12 01:27:38;;;;;;;27.95;17.23;;;8.50;99.90;;;;;;5056009;28;20507;-70
2024/03/12 01:30:07;;;;;;;30.75;18.65;;;8.50;99.90;;;;;;5056260;28;20027;-70
2024/03/12 01:32:34;;;;;;;29.52;17.50;;;8.50;99.90;;;;;;5056224;28;20029;-70
2024/03/12 01:35:00;;;;;;;31.35;18.25;;;8.50;99.90;;;;;;5056246;28;20033;-70
2024/03/12 01:37:26;;;;;;;31.35;17.92;;;8.50;99.90;;;;;;5056223;28;20086;-70
2024/03/12 01:39:53;;;;;;;31.58;18.48;;;8.50;99.90;;;;;;5056013;28;20025;-70
2024/03/12 01:42:21;;;;;;;30.65;18.85;;;8.40;99.90;;;;;;5056165;28;20025;-70
2024/03/12 01:44:48;;;;;;;30.13;18.30;;;8.40;99.90;;;;;;5056156;28;20115;-70
2024/03/12 01:47:14;;;;;;;31.73;20.55;;;8.40;99.90;;;;;;5055850;28;20483;-70
2024/03/12 01:49:39;;;;;;;32.83;19.88;;;8.40;99.90;;;;;;5055980;28;20025;-71
2024/03/12 01:52:07;;;;;;;36.88;21.55;;;8.40;99.90;;;;;;5055408;28;20108;-70
2024/03/12 01:54:33;;;;;;;36.47;20.83;;;8.40;99.90;;;;;;5055564;28;20033;-70
2024/03/12 01:56:59;;;;;;;32.88;21.05;;;8.40;99.90;;;;;;5055576;28;20029;-70
2024/03/12 01:59:24;;;;;;;38.60;21.25;;;8.40;99.90;;;;;;5055785;28;20028;-70
2024/03/12 02:01:59;;;;;;;36.25;21.30;;;8.40;99.90;;;;;;5055254;28;20398;-71
2024/03/12 02:04:25;;;;;;;33.00;20.95;;;8.40;99.90;;;;;;5055809;28;20114;-70
2024/03/12 02:06:51;;;;;;;36.25;23.02;;;8.40;99.90;;;;;;5055299;28;20061;-70
2024/03/12 02:09:17;;;;;;;37.78;23.05;;;8.40;99.90;;;;;;5055570;28;20037;-71
2024/03/12 02:11:42;;;;;;;41.25;24.85;;;8.40;99.90;;;;;;5055249;28;20023;-70
2024/03/12 02:14:08;;;;;;;41.85;25.95;;;8.40;99.90;;;;;;5055502;28;20115;-70
2024/03/12 02:16:33;;;;;;;49.95;27.15;;;8.30;99.90;;;;;;5055405;28;20036;-70
2024/03/12 02:18:59;;;;;;;47.38;27.27;;;8.30;99.90;;;;;;5055419;28;20036;-70
2024/03/12 02:21:24;;;;;;;46.15;26.52;;;8.30;99.90;;;;;;5055288;28;20033;-70
2024/03/12 02:23:51;;;;;;;52.83;29.20;;;8.30;99.90;;;;;;5055280;28;20119;-70
2024/03/12 02:26:16;;;;;;;47.25;26.60;;;8.20;99.90;;;;;;5055182;28;20052;-70
2024/03/12 02:28:43;;;;;;;54.38;30.25;;;8.20;99.90;;;;;;5055428;28;20025;-70
2024/03/12 02:31:09;;;;;;;49.08;28.50;;;8.20;99.90;;;;;;5055163;28;20028;-70
2024/03/12 02:33:35;;;;;;;47.78;27.77;;;8.20;99.90;;;;;;5055158;28;20033;-70
2024/03/12 02:36:01;;;;;;;49.47;28.08;;;8.20;99.90;;;;;;5055021;28;20502;-70
2024/03/12 02:38:27;;;;;;;52.22;29.08;;;8.10;99.90;;;;;;5055042;28;20033;-70
2024/03/12 02:40:52;;;;;;;47.60;27.92;;;8.10;99.90;;;;;;5055019;28;20395;-70
2024/03/12 02:43:18;;;;;;;50.65;27.88;;;8.10;99.90;;;;;;5054553;28;20032;-70
2024/03/12 02:45:45;;;;;;;55.63;28.55;;;8.10;99.90;;;;;;5055619;28;20025;-70
2024/03/12 02:48:12;;;;;;;60.17;29.73;;;8.10;99.90;;;;;;5054337;28;20028;-71
2024/03/12 02:50:38;;;;;;;58.97;29.92;;;8.10;99.90;;;;;;5054573;28;20071;-70
2024/03/12 02:53:04;;;;;;;66.22;30.98;;;8.10;99.90;;;;;;5054846;28;20024;-70
2024/03/12 02:55:29;;;;;;;68.10;31.92;;;8.00;99.90;;;;;;5054770;28;20029;-70
2024/03/12 02:57:55;;;;;;;66.72;31.23;;;8.00;99.90;;;;;;5054289;28;20461;-70
2024/03/12 03:00:21;;;;;;;63.25;32.10;;;8.00;99.90;;;;;;5054372;28;20082;-70
2024/03/12 03:02:46;;;;;;;65.47;32.00;;;8.00;99.90;;;;;;5054681;28;20497;-71
2024/03/12 03:05:13;;;;;;;63.28;32.17;;;8.00;99.90;;;;;;5054394;28;20116;-70
2024/03/12 03:07:41;;;;;;;67.72;33.55;;;7.90;99.90;;;;;;5054280;28;20036;-70
2024/03/12 03:10:06;;;;;;;69.80;33.05;;;7.90;99.90;;;;;;5054175;28;20028;-70
2024/03/12 03:12:32;;;;;;;70.57;33.42;;;7.90;99.90;;;;;;5054287;28;20048;-70
2024/03/12 03:14:58;;;;;;;74.28;35.05;;;7.90;99.90;;;;;;5054273;28;20061;-70
2024/03/12 03:17:23;;;;;;;75.32;35.72;;;7.90;99.90;;;;;;5054288;28;20083;-70
2024/03/12 03:19:49;;;;;;;72.57;34.58;;;7.90;99.90;;;;;;5054325;28;20036;-70
2024/03/12 03:22:15;;;;;;;80.00;35.83;;;7.90;99.90;;;;;;5054357;28;20036;-70
2024/03/12 03:24:42;;;;;;;72.63;35.20;;;7.90;99.90;;;;;;5053702;28;20021;-71
2024/03/12 03:27:08;;;;;;;74.07;34.63;;;7.90;99.90;;;;;;5053392;28;20047;-70
2024/03/12 03:29:35;;;;;;;78.57;37.05;;;7.90;99.90;;;;;;5053969;28;20033;-70
2024/03/12 03:32:02;;;;;;;75.60;36.88;;;7.90;99.90;;;;;;5053911;28;20098;-70
2024/03/12 03:34:28;;;;;;;72.32;34.53;;;7.90;99.90;;;;;;5053961;28;20029;-70
2024/03/12 03:36:56;;;;;;;75.38;36.30;;;7.90;99.90;;;;;;5053397;28;20108;-71
2024/03/12 03:39:26;;;;;;;81.55;36.78;;;7.90;99.90;;;;;;5053515;28;20032;-70
2024/03/12 03:41:52;;;;;;;80.20;36.08;;;7.90;99.90;;;;;;5053835;28;20033;-70
2024/03/12 03:44:18;;;;;;;72.93;35.42;;;7.90;99.90;;;;;;5053968;28;20142;-70
2024/03/12 03:46:44;;;;;;;86.97;38.47;;;7.90;99.90;;;;;;5053428;28;20112;-70
2024/03/12 03:49:10;;;;;;;90.03;38.22;;;7.90;99.90;;;;;;5053630;28;20044;-70
2024/03/12 03:51:36;;;;;;;87.95;39.58;;;7.90;99.90;;;;;;5053682;28;20021;-70
2024/03/12 03:54:02;;;;;;;91.57;39.17;;;7.90;99.90;;;;;;5053623;28;20021;-70
2024/03/12 03:56:29;;;;;;;97.47;40.20;;;7.90;99.90;;;;;;5053100;28;20121;-70
2024/03/12 03:58:58;;;;;;;94.85;39.83;;;7.90;99.90;;;;;;5053215;28;20075;-70
2024/03/12 04:01:24;;;;;;;98.90;40.92;;;7.90;99.90;;;;;;5053543;28;20553;-70
2024/03/12 04:03:51;;;;;;;107.70;45.63;;;7.90;99.90;;;;;;5053118;28;20083;-70
2024/03/12 04:06:21;;;;;;;114.63;46.58;;;7.90;99.90;;;;;;5053496;28;20025;-70
2024/03/12 04:08:49;;;;;;;119.15;47.30;;;7.80;99.90;;;;;;5053147;28;20024;-70
2024/03/12 04:11:15;;;;;;;119.20;49.28;;;7.80;99.90;;;;;;5053449;28;20116;-70
2024/03/12 04:13:40;;;;;;;127.78;51.83;;;7.80;99.90;;;;;;5053262;28;20090;-70
2024/03/12 04:16:06;;;;;;;123.07;49.50;;;7.80;99.90;;;;;;5053361;28;20039;-70
2024/03/12 04:18:33;;;;;;;126.45;51.58;;;7.80;99.90;;;;;;5053324;28;20068;-70
2024/03/12 04:20:59;;;;;;;133.35;52.95;;;7.80;99.90;;;;;;5053370;28;20486;-70
2024/03/12 04:23:24;;;;;;;132.00;52.28;;;7.80;99.90;;;;;;5053263;28;20021;-70
2024/03/12 04:25:51;;;;;;;134.38;53.38;;;7.80;99.90;;;;;;5053292;28;20119;-70
2024/03/12 04:28:19;;;;;;;130.98;52.75;;;7.70;99.90;;;;;;5052551;28;20045;-70
2024/03/12 04:30:45;;;;;;;135.02;55.20;;;7.70;99.90;;;;;;5053236;28;20554;-70
2024/03/12 04:33:11;;;;;;;141.82;54.55;;;7.70;99.90;;;;;;5053138;28;20498;-70
2024/03/12 04:35:37;;;;;;;138.68;54.33;;;7.80;99.90;;;;;;5052723;28;20025;-70
2024/03/12 04:38:03;;;;;;;134.15;53.40;;;7.70;99.90;;;;;;5053202;28;20036;-70
2024/03/12 04:40:28;;;;;;;137.07;55.92;;;7.70;99.90;;;;;;5053218;28;20064;-70
2024/03/12 04:42:54;;;;;;;148.07;57.30;;;7.70;99.90;;;;;;5053099;28;20021;-70
2024/03/12 04:45:21;;;;;;;142.52;57.33;;;7.80;99.90;;;;;;5053106;28;20487;-70
2024/03/12 04:47:46;;;;;;;135.98;55.75;;;7.70;99.90;;;;;;5052893;28;20124;-70
2024/03/12 04:50:14;;;;;;;139.85;55.25;;;7.70;99.90;;;;;;5056965;28;20029;-70
2024/03/12 04:52:40;;;;;;;144.45;58.53;;;7.70;99.90;;;;;;5056954;28;20116;-70
2024/03/12 04:55:07;;;;;;;150.32;56.97;;;7.70;99.90;;;;;;5057048;28;20057;-70
2024/03/12 04:57:35;;;;;;;150.02;59.58;;;7.70;99.90;;;;;;5056970;28;20453;-70
2024/03/12 05:00:00;;;;;;;143.15;55.75;;;7.70;99.90;;;;;;5056413;28;20033;-70
2024/03/12 05:02:26;;;;;;;154.38;60.33;;;7.70;99.90;;;;;;5056838;28;20032;-70
2024/03/12 05:04:51;;;;;;;163.77;59.35;;;7.70;99.90;;;;;;5056658;28;20032;-69
2024/03/12 05:07:17;;;;;;;159.85;60.08;;;7.70;99.90;;;;;;5056549;28;20116;-69
2024/03/12 05:09:43;;;;;;;164.75;57.75;;;7.70;99.90;;;;;;5056580;28;20075;-69
2024/03/12 05:12:08;;;;;;;164.52;60.67;;;7.70;99.90;;;;;;5056628;28;20029;-70
2024/03/12 05:14:34;;;;;;;161.15;61.25;;;7.70;99.90;;;;;;5056238;28;20027;-70
2024/03/12 05:16:59;;;;;;;152.98;58.42;;;7.70;99.90;;;;;;5056621;28;20032;-70
2024/03/12 05:19:26;;;;;;;159.13;59.33;;;7.70;99.90;;;;;;5056616;28;20035;-70
2024/03/12 05:21:52;;;;;;;158.27;58.17;;;7.70;99.90;;;;;;5056212;28;20395;-70
2024/03/12 05:24:18;;;;;;;158.18;60.00;;;7.70;99.90;;;;;;5056487;28;20033;-70
2024/03/12 05:26:45;;;;;;;148.18;55.60;;;7.70;99.90;;;;;;5056067;28;20048;-69
2024/03/12 05:29:11;;;;;;;155.00;57.45;;;7.70;99.90;;;;;;5056285;28;20118;-70
2024/03/12 05:31:38;;;;;;;152.05;57.83;;;7.70;99.90;;;;;;5056275;28;20063;-70
2024/03/12 05:34:16;;;;;;;158.50;59.83;;;7.70;99.90;;;;;;5056192;28;20059;-69
2024/03/12 05:36:47;;;;;;;140.57;55.72;;;7.70;99.90;;;;;;5056154;28;20039;-70
2024/03/12 05:39:37;;;;;;;143.63;54.92;;;7.70;99.90;;;;;;5056027;28;20032;-69
2024/03/12 05:50:16;;;;;;;130.65;50.45;;;7.70;99.90;;;;;;5055637;28;20028;-70
2024/03/12 05:52:45;;;;;;;132.77;51.60;;;7.70;99.90;;;;;;5055822;28;20025;-70
2024/03/12 05:55:10;;;;;;;131.40;50.85;;;7.70;99.90;;;;;;5055884;28;20437;-69
2024/03/12 05:57:36;;;;;;;130.27;50.40;;;7.70;99.90;;;;;;5055482;28;20025;-69
2024/03/12 06:00:08;;;;;;;124.70;50.15;;;7.70;99.90;;;;;;5054949;28;20036;-70
2024/03/12 06:02:33;;;;;;;122.00;48.78;;;7.70;99.90;;;;;;5055644;28;20484;-70
2024/03/12 06:04:59;;;;;;;119.47;48.72;;;7.70;99.90;;;;;;5055557;28;20029;-70
2024/03/12 06:07:24;;;;;;;115.90;48.50;;;7.70;99.90;;;;;;5055579;28;20082;-70
2024/03/12 06:09:51;;;;;;;129.63;51.22;;;7.70;99.90;;;;;;5055212;28;20020;-70
2024/03/12 06:12:18;;;;;;;123.97;49.63;;;7.70;99.90;;;;;;5055249;28;20044;-70
2024/03/12 06:14:43;;;;;;;129.40;53.38;;;7.70;99.90;;;;;;5055473;28;20490;-70
2024/03/12 06:17:09;;;;;;;126.50;50.42;;;7.70;99.90;;;;;;5055367;28;20060;-70
2024/03/12 06:19:34;;;;;;;124.45;49.55;;;7.70;99.90;;;;;;5055468;28;20032;-70
2024/03/12 06:22:00;;;;;;;132.63;50.75;;;7.70;99.90;;;;;;5055044;28;20398;-70
2024/03/12 06:24:25;;;;;;;110.50;48.15;;;7.70;99.90;;;;;;5055390;28;20092;-70
2024/03/12 06:26:51;;;;;;;114.43;46.38;;;7.70;99.90;;;;;;5054694;28;20429;-70
2024/03/12 06:29:17;;;;;;;116.10;47.70;;;7.70;99.90;;;;;;5055263;28;20086;-70
2024/03/12 06:31:44;;;;;;;114.95;46.10;;;7.70;99.90;;;;;;5054717;28;20021;-70
2024/03/12 06:34:10;;;;;;;113.32;46.05;;;7.70;99.90;;;;;;5055019;28;20025;-70
2024/03/12 06:36:37;;;;;;;110.93;45.97;;;7.70;99.90;;;;;;5055173;28;20387;-70
2024/03/12 06:39:06;;;;;;;110.28;45.05;;;7.70;99.90;;;;;;5055031;28;20383;-70
2024/03/12 06:41:31;;;;;;;117.38;46.63;;;7.70;99.90;;;;;;5054977;28;20025;-70
2024/03/12 06:43:57;;;;;;;112.68;44.13;;;7.70;99.90;;;;;;5054922;28;20549;-70
2024/03/12 06:46:23;;;;;;;112.18;45.85;;;7.70;99.90;;;;;;5054779;28;20448;-70
2024/03/12 06:48:49;;;;;;;111.07;46.33;;;7.80;99.90;;;;;;5054894;28;20111;-70
2024/03/12 06:51:15;;;;;;;114.75;48.63;;;7.70;99.90;;;;;;5054734;28;20028;-70
2024/03/12 06:53:41;;;;;;;119.63;48.72;;;7.80;99.90;;;;;;5054763;28;20483;-70
2024/03/12 06:56:07;;;;;;;113.40;49.13;;;7.70;99.90;;;;;;5054647;28;20075;-70
2024/03/12 06:58:33;;;;;;;116.03;50.58;;;7.80;99.90;;;;;;5054232;28;20060;-70
2024/03/12 07:00:59;;;;;;;111.65;49.42;;;7.80;99.90;;;;;;5054581;28;20029;-70
2024/03/12 07:03:27;;;;;;;112.85;49.60;;;7.80;99.90;;;;;;5054577;28;20036;-71
2024/03/12 07:05:54;;;;;;;113.45;51.00;;;7.80;99.90;;;;;;5054127;28;20115;-70
2024/03/12 07:08:21;;;;;;;104.65;47.10;;;7.80;99.90;;;;;;5053975;28;20120;-70
2024/03/12 07:10:50;;;;;;;117.20;50.53;;;7.80;99.90;;;;;;5053652;28;20501;-70
2024/03/12 07:13:17;;;;;;;99.32;44.92;;;7.80;99.90;;;;;;5054235;28;20024;-70
2024/03/12 07:15:44;;;;;;;101.07;44.17;;;7.80;99.90;;;;;;5054160;28;20115;-70
2024/03/12 07:18:10;;;;;;;102.30;47.45;;;7.80;99.90;;;;;;5054186;28;20559;-70
2024/03/12 07:20:35;;;;;;;95.57;45.85;;;7.80;99.90;;;;;;5054074;28;20060;-70
2024/03/12 07:23:02;;;;;;;91.93;44.97;;;7.80;99.90;;;;;;5053677;28;20021;-71
2024/03/12 07:25:30;;;;;;;88.00;42.83;;;7.70;99.90;;;;;;5054054;28;20087;-71
2024/03/12 07:27:59;;;;;;;81.88;38.60;;;7.80;99.90;;;;;;5052458;28;20045;-71
2024/03/12 07:30:24;;;;;;;83.68;39.35;;;7.80;99.90;;;;;;5052919;28;20029;-71
2024/03/12 07:32:51;;;;;;;84.15;40.70;;;7.80;99.90;;;;;;5053291;28;20051;-71
2024/03/12 07:35:17;;;;;;;88.22;44.20;;;7.80;99.90;;;;;;5050902;28;20025;-71
2024/03/12 07:37:43;;;;;;;89.28;39.83;;;7.80;99.90;;;;;;5051584;28;20053;-71
2024/03/12 07:40:09;;;;;;;88.10;43.17;;;7.70;99.90;;;;;;5053506;28;20364;-71
2024/03/12 07:42:36;;;;;;;105.65;50.35;;;7.80;99.90;;;;;;5052216;28;20483;-70
2024/03/12 07:45:01;;;;;;;90.15;43.10;;;7.80;99.90;;;;;;5053415;28;20499;-70
2024/03/12 07:47:29;;;;;;;94.13;46.67;;;7.80;99.90;;;;;;5052630;28;20126;-70
2024/03/12 07:49:54;;;;;;;86.75;43.63;;;7.80;99.90;;;;;;5047885;28;20034;-70
2024/03/12 07:52:20;;;;;;;93.72;45.35;;;7.80;99.90;;;;;;5049517;28;20035;-70
2024/03/12 07:54:47;;;;;;;87.18;43.28;;;7.80;99.90;;;;;;5049299;28;20033;-70
2024/03/12 07:57:13;;;;;;;86.45;41.50;;;7.80;99.90;;;;;;5050884;28;20032;-69
2024/03/12 07:59:38;;;;;;;83.38;42.08;;;7.80;99.90;;;;;;5053165;28;20035;-70
2024/03/12 08:02:11;;;;;;;77.95;41.45;;;7.90;99.90;;;;;;5047989;28;20506;-70
2024/03/12 08:04:38;;;;;;;78.50;39.80;;;7.90;99.90;;;;;;5050627;28;20527;-70
2024/03/12 08:07:03;;;;;;;82.35;41.05;;;8.00;99.90;;;;;;5051055;28;20110;-71
2024/03/12 08:09:29;;;;;;;80.28;40.63;;;7.90;99.90;;;;;;5052181;28;20029;-70
2024/03/12 08:11:54;;;;;;;75.50;37.70;;;7.90;99.90;;;;;;5052584;28;20028;-70
2024/03/12 08:14:20;;;;;;;71.93;35.60;;;7.90;99.90;;;;;;5051760;28;20036;-71
2024/03/12 08:16:46;;;;;;;74.38;35.92;;;7.90;99.90;;;;;;5052337;28;20044;-70
2024/03/12 08:19:12;;;;;;;66.85;34.40;;;7.80;99.90;;;;;;5053024;28;20068;-70
2024/03/12 08:21:39;;;;;;;62.53;32.10;;;7.80;99.90;;;;;;5052739;28;20063;-70
2024/03/12 08:24:05;;;;;;;60.83;31.02;;;7.80;99.90;;;;;;5052620;28;20029;-70
2024/03/12 08:26:31;;;;;;;51.60;29.90;;;7.80;99.90;;;;;;5051741;28;20056;-70
2024/03/12 08:28:57;;;;;;;54.53;29.98;;;7.80;99.90;;;;;;5055525;28;20021;-70
2024/03/12 08:31:24;;;;;;;60.88;30.63;;;7.80;99.90;;;;;;5052152;28;20021;-70
2024/03/12 08:33:50;;;;;;;61.08;30.88;;;7.80;99.90;;;;;;5052160;28;20021;-70
2024/03/12 08:36:16;;;;;;;59.15;30.30;;;7.70;99.90;;;;;;5052562;28;20029;-70
2024/03/12 08:38:42;;;;;;;56.05;30.45;;;7.70;99.90;;;;;;5051620;28;20032;-70
2024/03/12 08:41:09;;;;;;;56.67;31.45;;;7.70;99.90;;;;;;5051073;28;20033;-70
2024/03/12 08:43:36;;;;;;;61.10;32.70;;;7.70;99.90;;;;;;5051519;28;20029;-70
2024/03/12 08:46:03;;;;;;;58.95;30.90;;;7.70;99.90;;;;;;5047800;28;20094;-70
2024/03/12 08:48:29;;;;;;;63.13;33.33;;;7.60;99.90;;;;;;5048845;28;20184;-71
2024/03/12 08:50:56;;;;;;;65.63;36.20;;;7.60;99.90;;;;;;5060831;28;20107;-71
2024/03/12 08:53:21;;;;;;;70.10;39.45;;;7.60;99.90;;;;;;5052412;28;20387;-70
2024/03/12 08:55:47;;;;;;;75.13;40.28;;;7.60;99.90;;;;;;5049500;28;20037;-71
2024/03/12 08:58:12;;;;;;;76.25;43.97;;;7.60;99.90;;;;;;5050606;28;20033;-70
2024/03/12 09:00:41;;;;;;;73.40;41.85;;;7.60;99.90;;;;;;5048683;28;20033;-71
2024/03/12 09:03:07;;;;;;;91.18;52.83;;;7.60;99.90;;;;;;5047836;28;20045;-71
2024/03/12 09:05:34;;;;;;;85.20;50.13;;;7.60;99.90;;;;;;5051908;28;20395;-70
2024/03/12 09:08:03;;;;;;;65.43;36.33;;;7.60;99.90;;;;;;5048638;28;20387;-71
2024/03/12 09:10:30;;;;;;;67.65;38.55;;;7.60;99.90;;;;;;5052426;28;20021;-71
2024/03/12 09:12:56;;;;;;;55.08;32.50;;;7.60;99.90;;;;;;5046472;28;20120;-70
2024/03/12 09:15:22;;;;;;;52.90;27.80;;;7.60;99.90;;;;;;5047375;28;20021;-70
2024/03/12 09:17:48;;;;;;;49.22;26.48;;;7.70;99.90;;;;;;5047151;28;20739;-71
2024/03/12 09:20:14;;;;;;;53.20;27.38;;;7.70;99.90;;;;;;5044189;28;20025;-71
2024/03/12 09:22:44;;;;;;;47.05;26.02;;;7.70;99.90;;;;;;5042855;28;20600;-71
2024/03/12 09:25:10;;;;;;;47.20;26.92;;;7.90;99.90;;;;;;5045961;28;20470;-71
2024/03/12 09:27:36;;;;;;;50.20;26.08;;;8.00;99.90;;;;;;5045359;28;20040;-71
2024/03/12 09:30:03;;;;;;;47.67;25.33;;;8.10;99.90;;;;;;5042807;28;20040;-71
2024/03/12 09:32:29;;;;;;;45.75;24.70;;;8.10;99.90;;;;;;5037302;28;20025;-72
2024/03/12 09:34:54;;;;;;;46.85;24.42;;;8.10;99.90;;;;;;5049196;28;20509;-71
2024/03/12 09:37:20;;;;;;;39.15;22.95;;;8.20;99.90;;;;;;5050266;28;20115;-72
2024/03/12 09:39:46;;;;;;;40.92;23.45;;;8.20;99.90;;;;;;5055069;28;20025;-72
2024/03/12 09:42:17;;;;;;;39.83;21.98;;;8.30;99.90;;;;;;5054839;28;20098;-72
2024/03/12 09:44:43;;;;;;;39.50;23.88;;;8.40;99.90;;;;;;5051418;28;20033;-72
2024/03/12 09:47:10;;;;;;;43.78;24.45;;;8.40;99.90;;;;;;5051198;28;20612;-72
2024/03/12 09:49:35;;;;;;;37.85;23.95;;;8.40;99.90;;;;;;5047602;28;20039;-72
2024/03/12 09:52:06;;;;;;;44.20;25.83;;;8.50;99.90;;;;;;5052341;28;20100;-72
2024/03/12 09:54:34;;;;;;;50.42;27.73;;;8.50;99.90;;;;;;5054419;28;20029;-72
2024/03/12 09:57:01;;;;;;;49.17;27.63;;;8.50;99.90;;;;;;5054036;28;20033;-72
2024/03/12 09:59:27;;;;;;;52.75;29.42;;;8.50;99.90;;;;;;5054970;28;20182;-72
2024/03/12 10:01:53;;;;;;;48.13;28.45;;;8.50;99.90;;;;;;5054918;28;20044;-72
2024/03/12 10:04:18;;;;;;;52.55;29.17;;;8.40;99.90;;;;;;5054806;28;20041;-72
2024/03/12 10:06:45;;;;;;;54.42;29.95;;;8.50;99.90;;;;;;5053533;28;20041;-72
2024/03/12 10:09:17;;;;;;;51.83;30.00;;;8.60;99.90;;;;;;5055456;28;20029;-72
2024/03/12 10:11:44;;;;;;;47.15;29.08;;;8.60;99.90;;;;;;5053031;28;20428;-72
2024/03/12 10:14:12;;;;;;;50.65;29.23;;;8.60;99.90;;;;;;5054877;28;20483;-72
2024/03/12 10:16:38;;;;;;;50.25;28.33;;;8.60;99.90;;;;;;5046805;28;20029;-73
2024/03/12 10:19:09;;;;;;;52.78;28.80;;;8.60;99.90;;;;;;5050114;28;20021;-72
2024/03/12 10:21:36;;;;;;;50.92;29.90;;;8.50;99.90;;;;;;5051794;28;20071;-72
2024/03/12 10:24:21;;;;;;;53.22;28.83;;;8.40;99.90;;;;;;5054572;28;20017;-72
2024/03/12 10:26:49;;;;;;;52.55;30.20;;;8.30;99.90;;;;;;5054426;28;20041;-72
2024/03/12 10:29:18;;;;;;;55.75;30.58;;;8.30;99.90;;;;;;5054842;28;20479;-73
2024/03/12 10:31:44;;;;;;;52.67;31.23;;;8.30;99.90;;;;;;5054326;28;20131;-72
2024/03/12 10:34:14;;;;;;;52.03;29.45;;;8.20;99.90;;;;;;5054177;28;20142;-72
2024/03/12 10:36:43;;;;;;;47.10;27.90;;;8.20;99.90;;;;;;5054280;28;20132;-71
2024/03/12 10:39:12;;;;;;;50.42;28.13;;;8.20;99.90;;;;;;5040316;28;20552;-72
2024/03/12 10:41:39;;;;;;;52.25;28.90;;;8.10;99.90;;;;;;5054480;28;20437;-72
2024/03/12 10:44:10;;;;;;;52.72;28.85;;;8.10;99.90;;;;;;5054868;28;20028;-72
2024/03/12 10:46:38;;;;;;;51.90;28.50;;;8.10;99.90;;;;;;5054509;28;20547;-72
2024/03/12 10:49:10;;;;;;;53.05;29.95;;;8.10;99.90;;;;;;5053348;28;20479;-71
2024/03/12 10:51:39;;;;;;;54.92;31.00;;;8.10;99.90;;;;;;5053314;28;20039;-72
2024/03/12 10:54:07;;;;;;;59.60;29.60;;;8.10;99.90;;;;;;5053978;28;20021;-72
2024/03/12 10:56:34;;;;;;;54.40;28.85;;;8.20;99.90;;;;;;5047884;28;20036;-72
2024/03/12 10:59:00;;;;;;;54.55;29.58;;;8.10;99.90;;;;;;5052021;28;20075;-72
2024/03/12 11:01:28;;;;;;;52.50;28.67;;;8.20;99.90;;;;;;5053100;28;20498;-72
2024/03/12 11:03:56;;;;;;;49.75;27.42;;;8.20;99.90;;;;;;5054319;28;20047;-72
2024/03/12 11:06:22;;;;;;;50.80;26.50;;;8.20;99.90;;;;;;5053608;28;20029;-72
2024/03/12 11:08:49;;;;;;;50.05;26.75;;;8.30;99.90;;;;;;5053592;28;20029;-72
2024/03/12 11:11:16;;;;;;;43.58;23.05;;;8.30;99.90;;;;;;5053292;28;20458;-72
2024/03/12 11:13:42;;;;;;;40.80;22.35;;;8.30;99.90;;;;;;5051651;28;20028;-72
2024/03/12 11:16:12;;;;;;;40.03;21.33;;;8.30;99.90;;;;;;5053142;28;20044;-72
2024/03/12 11:18:39;;;;;;;37.17;20.83;;;8.30;99.90;;;;;;5052155;28;20112;-72
2024/03/12 11:21:10;;;;;;;37.15;19.65;;;8.20;99.90;;;;;;5053341;28;20086;-72
2024/03/12 11:23:36;;;;;;;45.40;21.33;;;8.20;99.90;;;;;;5051543;28;20459;-71
2024/03/12 11:26:04;;;;;;;41.70;21.67;;;8.20;99.90;;;;;;5052286;28;20032;-77
2024/03/12 11:28:32;;;;;;;49.30;26.58;;;8.10;99.90;;;;;;5052741;28;20479;-72
2024/03/12 11:31:04;;;;;;;48.72;25.20;;;8.10;99.90;;;;;;5052666;28;20493;-71
2024/03/12 11:33:49;;;;;;;52.70;26.25;;;8.00;99.90;;;;;;5053792;28;20021;-70
2024/03/12 11:36:26;;;;;;;48.60;26.35;;;8.00;99.90;;;;;;5053041;28;20538;-71
2024/03/12 11:38:52;;;;;;;58.30;26.42;;;7.90;99.90;;;;;;5051801;28;20086;-71
2024/03/12 11:41:19;;;;;;;51.35;27.85;;;8.00;99.90;;;;;;5053437;28;20025;-71
2024/03/12 11:43:45;;;;;;;59.72;28.05;;;8.00;99.90;;;;;;5053461;28;20024;-71
2024/03/12 11:46:15;;;;;;;58.67;28.52;;;8.00;99.90;;;;;;5053089;28;20079;-71
2024/03/12 11:48:41;;;;;;;55.75;28.10;;;8.00;99.90;;;;;;5052734;28;20375;-71
2024/03/12 11:51:11;;;;;;;56.40;27.80;;;8.00;99.90;;;;;;5052071;28;20623;-71
2024/03/12 11:53:38;;;;;;;62.35;30.15;;;8.10;99.90;;;;;;5053423;28;20040;-71
2024/03/12 11:58:46;;;;;;;60.08;29.85;;;8.20;99.90;;;;;;5142590;27;20241;-71
2024/03/12 12:01:18;;;;;;;53.95;29.23;;;8.10;99.90;;;;;;5092014;28;20028;-71
2024/03/12 12:03:44;;;;;;;54.53;29.20;;;8.10;99.90;;;;;;5091974;28;20162;-72
2024/03/12 12:06:10;;;;;;;61.38;29.38;;;8.10;99.90;;;;;;5090547;28;20573;-71
2024/03/12 12:08:37;;;;;;;52.55;28.02;;;8.10;99.90;;;;;;5103618;28;20074;-71
2024/03/12 12:11:09;;;;;;;54.20;27.30;;;8.00;99.90;;;;;;5096074;28;20028;-72
2024/03/12 12:13:36;;;;;;;56.03;28.63;;;8.10;99.90;;;;;;5092624;27;20032;-72
2024/03/12 12:16:05;;;;;;;54.88;29.33;;;8.10;99.90;;;;;;5089938;28;20036;-72
2024/03/12 12:18:32;;;;;;;58.35;28.98;;;8.10;99.90;;;;;;5093478;28;20512;-71
2024/03/12 12:21:02;;;;;;;58.15;30.20;;;8.10;99.90;;;;;;5088464;28;20485;-71
2024/03/12 12:23:29;;;;;;;56.00;27.73;;;8.10;99.90;;;;;;5088497;28;20024;-72
2024/03/12 12:25:56;;;;;;;53.35;27.25;;;8.10;99.90;;;;;;5092158;28;20020;-71
2024/03/12 12:28:24;;;;;;;53.60;27.27;;;8.10;99.90;;;;;;5090396;28;20028;-71
2024/03/12 12:30:54;;;;;;;53.00;26.27;;;8.10;99.90;;;;;;5089856;28;20036;-71
2024/03/12 12:33:24;;;;;;;55.15;27.67;;;8.00;99.90;;;;;;5089869;28;20028;-72
2024/03/12 12:35:50;;;;;;;52.20;25.52;;;8.00;99.90;;;;;;5088886;28;20033;-72
2024/03/12 12:38:17;;;;;;;48.28;25.02;;;8.10;99.90;;;;;;5090163;28;20035;-71
2024/03/12 12:40:44;;;;;;;47.13;24.13;;;8.10;99.90;;;;;;5089546;28;20032;-72
2024/03/12 12:43:19;;;;;;;44.15;24.27;;;8.10;99.90;;;;;;5088355;28;20050;-72